createdAt,value
2018-08-17T00:02:18.907Z,3.90
2018-08-17T00:04:47.005Z,4.00
2018-08-17T00:07:22.018Z,4.07
2018-08-17T00:09:50.627Z,3.80
2018-08-17T00:12:18.801Z,4.00
2018-08-17T00:14:46.945Z,4.27
2018-08-17T00:17:15.081Z,3.50
2018-08-17T00:19:43.185Z,3.60
2018-08-17T00:22:11.312Z,3.60
2018-08-17T00:24:39.460Z,3.43
2018-08-17T00:27:07.606Z,3.60
2018-08-17T00:29:35.779Z,3.63
2018-08-17T00:32:03.854Z,3.47
2018-08-17T00:34:31.962Z,3.40
2018-08-17T00:37:00.098Z,3.40
2018-08-17T00:39:28.258Z,3.60
2018-08-17T00:41:56.403Z,3.10
2018-08-17T00:44:24.541Z,3.80
2018-08-17T00:46:52.651Z,3.20
2018-08-17T00:49:20.794Z,3.63
2018-08-17T00:51:48.907Z,3.60
2018-08-17T00:54:17.037Z,3.33
2018-08-17T00:56:45.126Z,3.43
2018-08-17T00:59:13.301Z,3.50
2018-08-17T01:01:41.526Z,3.30
2018-08-17T01:04:09.630Z,3.40
2018-08-17T01:06:37.724Z,3.23
2018-08-17T01:09:07.414Z,3.67
2018-08-17T01:11:35.514Z,3.20
2018-08-17T01:14:03.628Z,3.40
2018-08-17T01:16:31.730Z,3.40
2018-08-17T01:18:59.882Z,3.60
2018-08-17T01:21:27.993Z,3.60
2018-08-17T01:23:56.110Z,3.30
2018-08-17T01:26:24.279Z,3.10
2018-08-17T01:28:52.420Z,3.20
2018-08-17T01:31:20.563Z,2.97
2018-08-17T01:33:49.076Z,3.73
2018-08-17T01:36:17.199Z,3.53
2018-08-17T01:38:45.314Z,3.60
2018-08-17T01:41:13.427Z,3.63
2018-08-17T01:43:41.567Z,3.40
2018-08-17T01:46:09.733Z,3.43
2018-08-17T01:48:37.834Z,3.50
2018-08-17T01:51:05.959Z,3.57
2018-08-17T01:53:34.059Z,3.47
2018-08-17T01:56:02.218Z,3.33
2018-08-17T01:58:30.364Z,3.60
2018-08-17T02:00:58.482Z,3.37
2018-08-17T02:03:26.615Z,3.40
2018-08-17T02:05:54.742Z,3.40
2018-08-17T02:08:23.018Z,3.33
2018-08-17T02:10:51.132Z,3.00
2018-08-17T02:13:19.237Z,3.00
2018-08-17T02:15:47.994Z,3.27
2018-08-17T02:18:16.070Z,3.63
2018-08-17T02:20:44.277Z,3.70
2018-08-17T02:23:12.678Z,3.67
2018-08-17T02:25:40.923Z,3.13
2018-08-17T02:28:09.037Z,3.20
2018-08-17T02:30:37.140Z,3.23
2018-08-17T02:33:05.580Z,3.50
2018-08-17T02:35:33.766Z,3.50
2018-08-17T02:38:01.895Z,3.50
2018-08-17T02:40:29.997Z,3.27
2018-08-17T02:42:58.138Z,3.27
2018-08-17T02:45:26.273Z,3.07
2018-08-17T02:47:54.639Z,3.50
2018-08-17T02:50:22.793Z,3.10
2018-08-17T02:52:50.910Z,3.20
2018-08-17T02:55:19.009Z,3.23
2018-08-17T02:57:47.127Z,3.30
2018-08-17T03:00:15.278Z,3.20
2018-08-17T03:02:43.385Z,3.47
2018-08-17T03:05:11.516Z,3.50
2018-08-17T03:07:39.648Z,3.10
2018-08-17T03:10:07.759Z,3.07
2018-08-17T03:12:35.936Z,3.70
2018-08-17T03:15:04.115Z,3.50
2018-08-17T03:17:32.280Z,3.47
2018-08-17T03:20:00.477Z,3.53
2018-08-17T03:22:28.620Z,3.03
2018-08-17T03:24:56.746Z,3.53
2018-08-17T03:27:24.848Z,3.60
2018-08-17T03:29:53.088Z,3.73
2018-08-17T03:32:21.227Z,3.17
2018-08-17T03:34:49.454Z,3.57
2018-08-17T03:37:17.759Z,3.57
2018-08-17T03:39:45.843Z,3.40
2018-08-17T03:42:14.030Z,3.50
2018-08-17T03:44:42.139Z,3.40
2018-08-17T03:47:10.393Z,3.67
2018-08-17T03:49:38.506Z,3.30
2018-08-17T03:52:06.860Z,3.70
2018-08-17T03:54:35.036Z,3.83
2018-08-17T03:57:03.225Z,4.03
2018-08-17T03:59:31.354Z,3.67
2018-08-17T04:01:59.777Z,3.70
2018-08-17T04:04:27.890Z,3.60
2018-08-17T04:06:56.155Z,3.57
2018-08-17T04:09:24.355Z,3.53
2018-08-17T04:11:52.485Z,3.13
2018-08-17T04:14:20.584Z,3.67
2018-08-17T04:16:48.716Z,3.80
2018-08-17T04:19:16.860Z,3.70
2018-08-17T04:21:45.030Z,3.47
2018-08-17T04:24:13.179Z,3.83
2018-08-17T04:26:41.328Z,3.70
2018-08-17T04:29:09.472Z,3.70
2018-08-17T04:31:37.894Z,3.80
2018-08-17T04:34:06.011Z,3.73
2018-08-17T04:36:34.089Z,3.67
2018-08-17T04:39:02.230Z,3.70
2018-08-17T04:41:30.402Z,3.60
2018-08-17T04:43:58.509Z,3.70
2018-08-17T04:46:26.698Z,3.53
2018-08-17T04:48:54.801Z,4.10
2018-08-17T04:51:22.929Z,3.73
2018-08-17T04:53:51.101Z,4.27
2018-08-17T04:56:19.240Z,4.10
2018-08-17T04:58:47.380Z,3.97
2018-08-17T05:01:15.529Z,4.10
2018-08-17T05:03:43.618Z,3.97
2018-08-17T05:06:11.796Z,3.80
2018-08-17T05:08:39.966Z,3.93
2018-08-17T05:11:08.143Z,4.10
2018-08-17T05:13:36.249Z,3.87
2018-08-17T05:16:04.385Z,4.10
2018-08-17T05:18:32.579Z,4.00
2018-08-17T05:21:00.731Z,4.07
2018-08-17T05:23:28.838Z,4.70
2018-08-17T05:25:56.975Z,4.13
2018-08-17T05:28:25.078Z,4.20
2018-08-17T05:30:53.241Z,4.00
2018-08-17T05:33:21.390Z,4.20
2018-08-17T05:35:49.545Z,4.13
2018-08-17T05:38:17.620Z,3.90
2018-08-17T05:40:45.717Z,3.90
2018-08-17T05:43:13.814Z,3.70
2018-08-17T05:45:41.983Z,3.40
2018-08-17T05:48:10.136Z,4.37
2018-08-17T05:50:38.402Z,3.73
2018-08-17T05:53:06.506Z,3.60
2018-08-17T05:55:34.618Z,4.00
2018-08-17T05:58:02.763Z,3.30
2018-08-17T06:00:30.928Z,3.73
2018-08-17T06:02:59.189Z,3.57
2018-08-17T06:05:27.290Z,3.90
2018-08-17T06:07:55.488Z,3.43
2018-08-17T06:10:23.620Z,3.73
2018-08-17T06:12:51.769Z,3.83
2018-08-17T06:15:19.967Z,3.90
2018-08-17T06:17:48.419Z,3.87
2018-08-17T06:20:16.527Z,4.50
2018-08-17T06:22:44.692Z,3.53
2018-08-17T06:25:13.899Z,3.67
2018-08-17T06:27:42.499Z,3.50
2018-08-17T06:30:13.724Z,3.53
2018-08-17T06:32:42.114Z,3.40
2018-08-17T06:35:11.331Z,3.80
2018-08-17T06:37:40.305Z,3.53
2018-08-17T06:40:08.883Z,3.87
2018-08-17T06:42:37.053Z,3.87
2018-08-17T06:45:09.669Z,3.70
2018-08-17T06:47:37.804Z,3.87
2018-08-17T06:50:07.446Z,4.17
2018-08-17T06:52:35.590Z,10.57
2018-08-17T06:55:04.683Z,4.07
2018-08-17T06:57:32.787Z,5.47
2018-08-17T07:00:00.910Z,3.80
2018-08-17T07:02:29.117Z,9.43
2018-08-17T07:04:57.335Z,3.90
2018-08-17T07:07:25.453Z,3.83
2018-08-17T07:09:53.653Z,3.87
2018-08-17T07:12:22.603Z,3.30
2018-08-17T07:14:50.743Z,3.80
2018-08-17T07:17:18.949Z,3.70
2018-08-17T07:19:47.189Z,3.27
2018-08-17T07:22:16.019Z,3.60
2018-08-17T07:24:44.142Z,3.80
2018-08-17T07:27:12.248Z,3.70
2018-08-17T07:29:40.855Z,3.70
2018-08-17T07:32:09.095Z,3.60
2018-08-17T07:34:37.233Z,3.93
2018-08-17T07:37:05.393Z,3.70
2018-08-17T07:39:33.526Z,3.40
2018-08-17T07:42:01.674Z,3.33
2018-08-17T07:44:29.786Z,4.03
2018-08-17T07:46:57.903Z,3.80
2018-08-17T07:49:25.989Z,3.63
2018-08-17T07:51:54.204Z,3.70
2018-08-17T07:54:22.335Z,4.47
2018-08-17T07:56:50.551Z,3.40
2018-08-17T07:59:18.983Z,3.60
2018-08-17T08:01:47.192Z,4.30
2018-08-17T08:04:15.391Z,3.40
2018-08-17T08:06:43.515Z,3.73
2018-08-17T08:09:11.697Z,3.63
2018-08-17T08:11:40.823Z,5.00
2018-08-17T08:14:09.237Z,4.23
2018-08-17T08:16:37.375Z,4.30
2018-08-17T08:19:10.263Z,3.80
2018-08-17T08:21:38.490Z,3.90
2018-08-17T08:24:06.575Z,3.57
2018-08-17T08:26:34.659Z,3.07
2018-08-17T08:29:02.819Z,3.40
2018-08-17T08:31:30.986Z,3.03
2018-08-17T08:33:59.082Z,3.80
2018-08-17T08:36:27.254Z,3.50
2018-08-17T08:38:55.427Z,3.50
2018-08-17T08:41:23.503Z,4.07
2018-08-17T08:43:51.716Z,3.70
2018-08-17T08:46:19.875Z,3.70
2018-08-17T08:48:48.090Z,3.70
2018-08-17T08:51:16.142Z,3.47
2018-08-17T08:53:44.248Z,3.10
2018-08-17T08:56:12.336Z,3.60
2018-08-17T08:58:40.464Z,3.03
2018-08-17T09:01:08.885Z,3.03
2018-08-17T09:03:37.075Z,3.73
2018-08-17T09:06:05.182Z,3.00
2018-08-17T09:08:33.301Z,3.07
2018-08-17T09:11:01.427Z,3.00
2018-08-17T09:13:29.548Z,3.73
2018-08-17T09:15:57.708Z,4.17
2018-08-17T09:18:25.801Z,3.60
2018-08-17T09:20:53.976Z,3.90
2018-08-17T09:23:22.206Z,3.37
2018-08-17T09:25:50.296Z,2.70
2018-08-17T09:28:18.416Z,3.57
2018-08-17T09:30:46.500Z,3.05
2018-08-17T09:33:14.600Z,4.05
2018-08-17T09:35:42.699Z,3.40
2018-08-17T09:38:10.870Z,3.05
2018-08-17T09:40:39.048Z,3.17
2018-08-17T09:43:07.219Z,2.85
2018-08-17T09:45:35.336Z,3.25
2018-08-17T09:48:03.515Z,3.30
2018-08-17T09:50:31.652Z,4.05
2018-08-17T09:52:59.801Z,2.77
2018-08-17T09:55:27.901Z,3.50
2018-08-17T09:57:55.995Z,3.65
2018-08-17T10:00:31.399Z,3.33
2018-08-17T10:03:04.919Z,3.20
2018-08-17T10:05:40.529Z,3.17
2018-08-17T10:08:14.441Z,3.65
2018-08-17T10:10:43.218Z,4.17
2018-08-17T10:13:11.361Z,3.08
2018-08-17T10:15:39.561Z,3.25
2018-08-17T10:18:07.793Z,3.12
2018-08-17T10:20:35.952Z,4.30
2018-08-17T10:23:08.596Z,2.80
2018-08-17T10:25:36.719Z,3.10
2018-08-17T10:28:04.833Z,3.10
2018-08-17T10:30:32.912Z,3.22
2018-08-17T10:33:01.126Z,3.45
2018-08-17T10:35:30.457Z,3.15
2018-08-17T10:38:00.985Z,3.35
2018-08-17T10:40:29.283Z,3.35
2018-08-17T10:42:58.372Z,3.58
2018-08-17T10:45:27.294Z,3.42
2018-08-17T10:47:56.027Z,3.12
2018-08-17T10:50:25.340Z,3.33
2018-08-17T10:52:54.526Z,3.00
2018-08-17T10:55:24.146Z,3.08
2018-08-17T10:57:52.497Z,3.40
2018-08-17T11:00:22.022Z,3.17
2018-08-17T11:02:50.194Z,4.08
2018-08-17T11:05:18.699Z,3.20
2018-08-17T11:07:48.089Z,3.15
2018-08-17T11:10:16.179Z,3.40
2018-08-17T11:12:45.826Z,3.15
2018-08-17T11:15:14.002Z,3.35
2018-08-17T11:17:43.260Z,3.27
2018-08-17T11:20:11.395Z,3.47
2018-08-17T11:22:39.567Z,3.37
2018-08-17T11:25:08.239Z,3.20
2018-08-17T11:27:36.722Z,3.87
2018-08-17T11:30:07.161Z,3.40
2018-08-17T11:32:35.275Z,3.08
2018-08-17T11:35:03.474Z,3.10
2018-08-17T11:37:31.562Z,3.25
2018-08-17T11:40:02.687Z,3.15
2018-08-17T11:42:46.671Z,2.77
2018-08-17T11:45:20.839Z,3.00
2018-08-17T11:47:49.201Z,3.05
2018-08-17T11:50:19.088Z,4.03
2018-08-17T11:52:58.736Z,3.42
2018-08-17T11:55:28.597Z,2.85
2018-08-17T11:57:56.764Z,3.30
2018-08-17T12:00:25.518Z,3.10
2018-08-17T12:02:53.626Z,3.35
2018-08-17T12:05:21.809Z,3.35
2018-08-17T12:07:50.112Z,2.80
2018-08-17T12:10:18.799Z,3.20
2018-08-17T12:12:47.551Z,3.17
2018-08-17T12:15:16.319Z,3.20
2018-08-17T12:17:45.234Z,3.27
2018-08-17T12:20:13.443Z,3.33
2018-08-17T12:22:41.534Z,3.33
2018-08-17T12:25:10.230Z,2.90
2018-08-17T12:27:38.482Z,3.08
2018-08-17T12:30:07.993Z,3.30
2018-08-17T12:32:36.114Z,3.22
2018-08-17T12:35:04.534Z,3.27
2018-08-17T12:37:32.675Z,3.20
2018-08-17T12:40:00.868Z,3.90
2018-08-17T12:42:28.984Z,3.37
2018-08-17T12:45:02.207Z,3.37
2018-08-17T12:47:30.959Z,3.35
2018-08-17T12:49:59.165Z,3.02
2018-08-17T12:52:27.359Z,3.10
2018-08-17T12:54:55.446Z,3.12
2018-08-17T12:57:27.841Z,3.30
2018-08-17T12:59:55.936Z,3.37
2018-08-17T13:02:24.041Z,3.33
2018-08-17T13:04:52.215Z,3.10
2018-08-17T13:07:20.335Z,2.98
2018-08-17T13:09:51.631Z,3.45
2018-08-17T13:12:19.805Z,2.87
2018-08-17T13:14:48.031Z,3.67
2018-08-17T13:17:16.407Z,3.35
2018-08-17T13:19:44.555Z,3.10
2018-08-17T13:22:12.740Z,3.20
2018-08-17T13:24:40.948Z,3.30
2018-08-17T13:27:09.078Z,3.50
2018-08-17T13:29:37.225Z,3.33
2018-08-17T13:32:05.365Z,3.70
2018-08-17T13:34:33.549Z,3.15
2018-08-17T13:37:01.698Z,3.60
2018-08-17T13:39:29.814Z,3.25
2018-08-17T13:41:57.988Z,3.47
2018-08-17T13:44:26.116Z,3.85
2018-08-17T13:46:54.240Z,3.42
2018-08-17T13:49:22.331Z,3.40
2018-08-17T13:51:50.508Z,3.87
2018-08-17T13:54:18.612Z,3.55
2018-08-17T13:56:46.703Z,3.72
2018-08-17T13:59:14.801Z,4.78
2018-08-17T14:01:43.331Z,3.20
2018-08-17T14:04:11.435Z,3.77
2018-08-17T14:06:39.609Z,3.45
2018-08-17T14:09:08.208Z,3.20
2018-08-17T14:11:36.335Z,3.20
2018-08-17T14:14:04.752Z,3.12
2018-08-17T14:16:32.877Z,4.20
2018-08-17T14:19:00.979Z,3.62
2018-08-17T14:21:29.099Z,3.65
2018-08-17T14:23:57.294Z,4.90
2018-08-17T14:26:25.381Z,3.15
2018-08-17T14:28:53.650Z,3.27
2018-08-17T14:31:21.950Z,3.45
2018-08-17T14:33:50.113Z,3.45
2018-08-17T14:36:18.258Z,3.37
2018-08-17T14:38:46.392Z,3.10
2018-08-17T14:41:14.543Z,3.65
2018-08-17T14:43:42.685Z,4.22
2018-08-17T14:46:10.843Z,3.20
2018-08-17T14:48:38.942Z,4.08
2018-08-17T14:51:07.095Z,3.35
2018-08-17T14:53:35.280Z,3.50
2018-08-17T14:56:03.378Z,3.25
2018-08-17T14:58:31.560Z,3.90
2018-08-17T15:00:59.654Z,4.37
2018-08-17T15:03:27.816Z,4.00
2018-08-17T15:05:55.980Z,4.00
2018-08-17T15:08:24.276Z,3.42
2018-08-17T15:10:52.419Z,4.30
2018-08-17T15:13:20.610Z,3.67
2018-08-17T15:15:48.683Z,3.62
2018-08-17T15:18:16.955Z,4.10
2018-08-17T15:20:45.084Z,3.62
2018-08-17T15:23:13.624Z,3.80
2018-08-17T15:25:41.787Z,3.67
2018-08-17T15:28:10.008Z,4.30
2018-08-17T15:30:38.095Z,3.70
2018-08-17T15:33:06.206Z,3.62
2018-08-17T15:35:34.369Z,3.40
2018-08-17T15:38:02.539Z,3.50
2018-08-17T15:40:30.648Z,3.47
2018-08-17T15:43:02.324Z,4.00
2018-08-17T15:48:09.367Z,4.05
2018-08-17T15:50:37.575Z,3.77
2018-08-17T15:53:05.830Z,4.10
2018-08-17T15:55:34.071Z,3.95
2018-08-17T15:58:02.293Z,4.22
2018-08-17T16:00:30.433Z,3.75
2018-08-17T16:02:58.619Z,4.50
2018-08-17T16:05:26.825Z,4.08
2018-08-17T16:07:55.080Z,3.98
2018-08-17T16:10:23.251Z,3.92
2018-08-17T16:12:51.368Z,4.20
2018-08-17T16:15:19.483Z,4.50
2018-08-17T16:17:47.928Z,3.90
2018-08-17T16:20:16.073Z,4.22
2018-08-17T16:22:44.840Z,3.95
2018-08-17T16:25:13.811Z,4.28
2018-08-17T16:27:42.696Z,4.15
2018-08-17T16:30:14.482Z,4.33
2018-08-17T16:32:42.735Z,4.35
2018-08-17T16:35:11.462Z,4.60
2018-08-17T16:37:44.714Z,4.40
2018-08-17T16:40:12.940Z,4.70
2018-08-17T16:42:41.060Z,4.28
2018-08-17T16:45:09.642Z,4.60
2018-08-17T16:47:37.896Z,4.47
2018-08-17T16:50:07.434Z,4.70
2018-08-17T16:52:35.614Z,5.00
2018-08-17T16:55:04.031Z,4.87
2018-08-17T16:57:32.466Z,5.00
2018-08-17T17:00:00.686Z,5.12
2018-08-17T17:02:28.841Z,5.55
2018-08-17T17:04:56.986Z,5.62
2018-08-17T17:07:29.571Z,5.90
2018-08-17T17:09:57.847Z,5.85
2018-08-17T17:12:26.005Z,5.40
2018-08-17T17:14:55.305Z,5.40
2018-08-17T17:17:23.392Z,6.50
2018-08-17T17:19:51.527Z,5.87
2018-08-17T17:22:20.177Z,5.50
2018-08-17T17:24:48.290Z,5.37
2018-08-17T17:27:19.382Z,5.63
2018-08-17T17:29:47.698Z,6.00
2018-08-17T17:32:15.805Z,5.40
2018-08-17T17:34:43.949Z,5.57
2018-08-17T17:37:12.167Z,5.37
2018-08-17T17:39:40.304Z,5.23
2018-08-17T17:42:08.402Z,5.33
2018-08-17T17:44:36.652Z,5.20
2018-08-17T17:47:04.829Z,5.20
2018-08-17T17:49:32.942Z,5.03
2018-08-17T17:52:01.091Z,4.50
2018-08-17T17:54:29.269Z,4.87
2018-08-17T17:57:01.463Z,4.77
2018-08-17T17:59:29.619Z,4.83
2018-08-17T18:01:57.733Z,4.60
2018-08-17T18:04:30.454Z,4.53
2018-08-17T18:06:58.917Z,4.80
2018-08-17T18:09:27.108Z,4.83
2018-08-17T18:11:55.384Z,4.50
2018-08-17T18:14:23.896Z,4.70
2018-08-17T18:16:52.055Z,4.20
2018-08-17T18:19:20.315Z,4.57
2018-08-17T18:21:48.477Z,4.20
2018-08-17T18:24:16.635Z,4.17
2018-08-17T18:26:47.325Z,4.80
2018-08-17T18:29:15.676Z,4.43
2018-08-17T18:31:43.949Z,4.60
2018-08-17T18:34:12.088Z,4.70
2018-08-17T18:36:40.585Z,4.17
2018-08-17T18:39:11.349Z,4.03
2018-08-17T18:41:39.688Z,3.83
2018-08-17T18:44:07.929Z,4.17
2018-08-17T18:46:36.389Z,3.73
2018-08-17T18:49:04.612Z,3.80
2018-08-17T18:51:32.751Z,4.00
2018-08-17T18:54:00.947Z,4.10
2018-08-17T18:56:29.273Z,4.03
2018-08-17T18:58:57.749Z,4.17
2018-08-17T19:01:26.234Z,3.83
2018-08-17T19:03:54.705Z,3.93
2018-08-17T19:06:22.880Z,3.67
2018-08-17T19:08:51.061Z,4.10
2018-08-17T19:11:19.672Z,3.57
2018-08-17T19:13:48.115Z,3.83
2018-08-17T19:16:17.182Z,3.63
2018-08-17T19:18:45.358Z,3.80
2018-08-17T19:21:14.266Z,3.50
2018-08-17T19:23:42.417Z,3.60
2018-08-17T19:26:10.985Z,3.40
2018-08-17T19:28:39.304Z,3.40
2018-08-17T19:31:08.131Z,3.77
2018-08-17T19:33:36.347Z,3.80
2018-08-17T19:36:04.970Z,4.10
2018-08-17T19:38:37.059Z,3.93
2018-08-17T19:41:05.190Z,3.80
2018-08-17T19:43:33.354Z,3.30
2018-08-17T19:46:01.611Z,3.10
2018-08-17T19:48:29.729Z,3.60
2018-08-17T19:50:57.933Z,3.90
2018-08-17T19:53:26.886Z,3.43
2018-08-17T19:55:55.090Z,3.30
2018-08-17T19:58:23.266Z,3.63
2018-08-17T20:00:51.469Z,3.50
2018-08-17T20:03:19.576Z,3.67
2018-08-17T20:05:47.720Z,3.63
2018-08-17T20:08:16.177Z,3.57
2018-08-17T20:10:44.297Z,3.57
2018-08-17T20:13:12.446Z,3.17
2018-08-17T20:15:40.601Z,3.40
2018-08-17T20:18:08.720Z,3.80
2018-08-17T20:20:36.937Z,3.50
2018-08-17T20:23:05.022Z,3.67
2018-08-17T20:25:33.210Z,3.57
2018-08-17T20:28:01.450Z,3.63
2018-08-17T20:30:29.596Z,3.30
2018-08-17T20:32:57.786Z,3.63
2018-08-17T20:35:25.871Z,3.30
2018-08-17T20:37:54.363Z,3.70
2018-08-17T20:40:22.632Z,3.50
2018-08-17T20:42:50.910Z,3.43
2018-08-17T20:45:19.440Z,3.47
2018-08-17T20:47:47.608Z,3.57
2018-08-17T20:50:17.982Z,3.67
2018-08-17T20:52:52.233Z,3.10
2018-08-17T20:55:20.608Z,3.60
2018-08-17T20:57:52.600Z,3.80
2018-08-17T21:00:22.523Z,3.60
2018-08-17T21:02:52.256Z,3.30
2018-08-17T21:05:20.390Z,3.10
2018-08-17T21:07:49.149Z,3.30
2018-08-17T21:10:17.570Z,3.23
2018-08-17T21:12:46.411Z,3.30
2018-08-17T21:15:14.648Z,3.20
2018-08-17T21:17:42.865Z,3.50
2018-08-17T21:20:11.138Z,3.57
2018-08-17T21:22:39.283Z,3.33
2018-08-17T21:25:07.802Z,3.73
2018-08-17T21:27:35.966Z,3.17
2018-08-17T21:30:04.508Z,3.00
2018-08-17T21:32:32.666Z,3.20
2018-08-17T21:35:00.883Z,2.90
2018-08-17T21:37:29.110Z,3.60
2018-08-17T21:39:57.227Z,3.10
2018-08-17T21:42:25.370Z,3.10
2018-08-17T21:44:53.467Z,3.03
2018-08-17T21:47:21.615Z,3.03
2018-08-17T21:49:49.805Z,3.13
2018-08-17T21:52:24.746Z,3.07
2018-08-17T21:54:52.925Z,3.27
2018-08-17T21:57:20.998Z,3.00
2018-08-17T21:59:50.660Z,2.60
2018-08-17T22:02:19.531Z,2.67
2018-08-17T22:04:47.590Z,2.63
2018-08-17T22:07:19.589Z,2.70
2018-08-17T22:09:47.673Z,2.93
2018-08-17T22:12:15.809Z,2.47
2018-08-17T22:14:45.748Z,2.80
2018-08-17T22:17:25.810Z,2.83
2018-08-17T22:19:53.909Z,2.67
2018-08-17T22:22:22.044Z,2.57
2018-08-17T22:24:51.452Z,2.47
2018-08-17T22:27:20.061Z,2.60
2018-08-17T22:29:49.588Z,2.77
2018-08-17T22:32:17.748Z,2.80
2018-08-17T22:34:46.123Z,2.50
2018-08-17T22:37:14.214Z,2.70
2018-08-17T22:39:42.368Z,2.53
2018-08-17T22:42:10.474Z,2.33
2018-08-17T22:44:38.782Z,2.40
2018-08-17T22:47:26.132Z,2.67
2018-08-17T22:49:56.406Z,2.60
2018-08-17T22:52:24.541Z,3.10
2018-08-17T22:54:55.963Z,2.63
2018-08-17T22:57:24.289Z,2.70
2018-08-17T23:00:14.246Z,2.87
2018-08-17T23:02:43.523Z,2.40
2018-08-17T23:05:14.255Z,2.50
2018-08-17T23:07:42.466Z,2.50
2018-08-17T23:10:13.828Z,2.53
2018-08-17T23:12:42.091Z,2.50
2018-08-17T23:15:11.191Z,2.60
2018-08-17T23:17:39.722Z,2.40
2018-08-17T23:20:14.623Z,2.63
2018-08-17T23:22:48.182Z,2.50
2018-08-17T23:25:16.387Z,2.50
2018-08-17T23:27:44.872Z,2.43
2018-08-17T23:30:13.182Z,2.60
2018-08-17T23:32:41.353Z,2.30
2018-08-17T23:35:09.695Z,2.20
2018-08-17T23:37:38.222Z,2.33
2018-08-17T23:40:07.249Z,2.40
2018-08-17T23:42:35.577Z,2.23
2018-08-17T23:45:04.166Z,2.53
2018-08-17T23:47:32.666Z,2.63
2018-08-17T23:50:00.779Z,2.80
2018-08-17T23:52:28.868Z,2.50
2018-08-17T23:54:56.969Z,2.73
2018-08-17T23:57:25.055Z,2.67
2018-08-17T23:59:53.163Z,2.37
